sensor_id;sensor_type;location;lat;lon;timestamp;temperature;humidity
12329;DHT22;6230;52.390;10.256;2023-12-07T00:00:35;5.80;74.60
12329;DHT22;6230;52.390;10.256;2023-12-07T00:03:00;5.80;74.60
12329;DHT22;6230;52.390;10.256;2023-12-07T00:05:26;5.80;74.60
12329;DHT22;6230;52.390;10.256;2023-12-07T00:07:51;5.80;74.60
12329;DHT22;6230;52.390;10.256;2023-12-07T00:10:17;5.90;74.60
12329;DHT22;6230;52.390;10.256;2023-12-07T00:12:42;5.80;74.60
12329;DHT22;6230;52.390;10.256;2023-12-07T00:15:08;5.80;74.60
12329;DHT22;6230;52.390;10.256;2023-12-07T00:17:34;5.80;75.50
12329;DHT22;6230;52.390;10.256;2023-12-07T00:19:59;5.80;74.70
12329;DHT22;6230;52.390;10.256;2023-12-07T00:22:25;5.80;74.70
12329;DHT22;6230;52.390;10.256;2023-12-07T00:24:52;5.80;74.70
12329;DHT22;6230;52.390;10.256;2023-12-07T00:27:18;5.80;74.70
12329;DHT22;6230;52.390;10.256;2023-12-07T00:29:43;5.80;74.70
12329;DHT22;6230;52.390;10.256;2023-12-07T00:32:09;5.80;75.00
12329;DHT22;6230;52.390;10.256;2023-12-07T00:34:34;5.80;74.80
12329;DHT22;6230;52.390;10.256;2023-12-07T00:37:00;5.80;74.80
12329;DHT22;6230;52.390;10.256;2023-12-07T00:39:26;5.80;74.70
12329;DHT22;6230;52.390;10.256;2023-12-07T00:41:51;5.80;74.70
12329;DHT22;6230;52.390;10.256;2023-12-07T00:44:18;5.80;74.70
12329;DHT22;6230;52.390;10.256;2023-12-07T00:46:44;5.80;74.80
12329;DHT22;6230;52.390;10.256;2023-12-07T00:49:09;5.80;74.80
12329;DHT22;6230;52.390;10.256;2023-12-07T00:51:35;5.80;74.80
12329;DHT22;6230;52.390;10.256;2023-12-07T00:54:01;5.80;74.80
12329;DHT22;6230;52.390;10.256;2023-12-07T00:56:26;5.80;74.80
12329;DHT22;6230;52.390;10.256;2023-12-07T00:58:52;5.80;74.80
12329;DHT22;6230;52.390;10.256;2023-12-07T01:01:18;5.80;74.80
12329;DHT22;6230;52.390;10.256;2023-12-07T01:03:43;5.80;74.90
12329;DHT22;6230;52.390;10.256;2023-12-07T01:06:09;5.80;74.90
12329;DHT22;6230;52.390;10.256;2023-12-07T01:08:36;5.80;74.90
12329;DHT22;6230;52.390;10.256;2023-12-07T01:11:03;5.80;74.90
12329;DHT22;6230;52.390;10.256;2023-12-07T01:13:28;5.80;74.90
12329;DHT22;6230;52.390;10.256;2023-12-07T01:15:54;5.90;74.90
12329;DHT22;6230;52.390;10.256;2023-12-07T01:18:20;5.90;74.90
12329;DHT22;6230;52.390;10.256;2023-12-07T01:20:46;5.90;74.90
12329;DHT22;6230;52.390;10.256;2023-12-07T01:23:11;5.90;74.90
12329;DHT22;6230;52.390;10.256;2023-12-07T01:25:37;5.90;74.80
12329;DHT22;6230;52.390;10.256;2023-12-07T01:28:02;5.90;74.80
12329;DHT22;6230;52.390;10.256;2023-12-07T01:30:28;5.90;74.80
12329;DHT22;6230;52.390;10.256;2023-12-07T01:32:53;5.90;74.80
12329;DHT22;6230;52.390;10.256;2023-12-07T01:35:19;5.90;74.80
12329;DHT22;6230;52.390;10.256;2023-12-07T01:37:45;5.90;74.80
12329;DHT22;6230;52.390;10.256;2023-12-07T01:40:10;5.90;74.80
12329;DHT22;6230;52.390;10.256;2023-12-07T01:42:39;5.90;75.00
12329;DHT22;6230;52.390;10.256;2023-12-07T01:45:06;5.90;74.80
12329;DHT22;6230;52.390;10.256;2023-12-07T01:47:32;6.00;75.60
12329;DHT22;6230;52.390;10.256;2023-12-07T01:49:59;6.00;74.90
12329;DHT22;6230;52.390;10.256;2023-12-07T01:52:27;6.00;74.80
12329;DHT22;6230;52.390;10.256;2023-12-07T01:54:54;6.00;74.90
12329;DHT22;6230;52.390;10.256;2023-12-07T01:57:20;6.00;74.80
12329;DHT22;6230;52.390;10.256;2023-12-07T01:59:46;6.00;74.90
12329;DHT22;6230;52.390;10.256;2023-12-07T02:02:11;6.00;74.80
12329;DHT22;6230;52.390;10.256;2023-12-07T02:04:38;6.00;74.90
12329;DHT22;6230;52.390;10.256;2023-12-07T02:07:04;6.00;74.80
12329;DHT22;6230;52.390;10.256;2023-12-07T02:09:30;6.00;74.80
12329;DHT22;6230;52.390;10.256;2023-12-07T02:11:55;6.00;74.80
12329;DHT22;6230;52.390;10.256;2023-12-07T02:14:21;6.10;74.70
12329;DHT22;6230;52.390;10.256;2023-12-07T02:17:21;6.10;74.70
12329;DHT22;6230;52.390;10.256;2023-12-07T02:22:29;6.10;74.60
12329;DHT22;6230;52.390;10.256;2023-12-07T02:25:08;6.10;74.50
12329;DHT22;6230;52.390;10.256;2023-12-07T02:27:41;6.10;74.50
12329;DHT22;6230;52.390;10.256;2023-12-07T02:30:09;6.20;74.50
12329;DHT22;6230;52.390;10.256;2023-12-07T02:32:37;6.20;74.50
12329;DHT22;6230;52.390;10.256;2023-12-07T02:35:03;6.20;74.50
12329;DHT22;6230;52.390;10.256;2023-12-07T02:37:34;6.20;74.50
12329;DHT22;6230;52.390;10.256;2023-12-07T02:40:03;6.20;74.60
12329;DHT22;6230;52.390;10.256;2023-12-07T02:42:30;6.20;74.50
12329;DHT22;6230;52.390;10.256;2023-12-07T02:44:56;6.20;74.50
12329;DHT22;6230;52.390;10.256;2023-12-07T02:47:22;6.20;74.50
12329;DHT22;6230;52.390;10.256;2023-12-07T02:49:48;6.20;74.50
12329;DHT22;6230;52.390;10.256;2023-12-07T02:52:13;6.20;74.60
12329;DHT22;6230;52.390;10.256;2023-12-07T02:54:39;6.20;74.60
12329;DHT22;6230;52.390;10.256;2023-12-07T02:57:04;6.20;74.60
12329;DHT22;6230;52.390;10.256;2023-12-07T02:59:30;6.20;74.60
12329;DHT22;6230;52.390;10.256;2023-12-07T03:01:55;6.10;74.50
12329;DHT22;6230;52.390;10.256;2023-12-07T03:04:21;6.10;74.60
12329;DHT22;6230;52.390;10.256;2023-12-07T03:06:46;6.10;74.60
12329;DHT22;6230;52.390;10.256;2023-12-07T03:09:12;6.10;74.60
12329;DHT22;6230;52.390;10.256;2023-12-07T03:11:37;6.10;74.60
12329;DHT22;6230;52.390;10.256;2023-12-07T03:14:03;6.10;74.60
12329;DHT22;6230;52.390;10.256;2023-12-07T03:16:29;6.20;74.70
12329;DHT22;6230;52.390;10.256;2023-12-07T03:18:54;6.10;74.60
12329;DHT22;6230;52.390;10.256;2023-12-07T03:21:20;6.20;74.60
12329;DHT22;6230;52.390;10.256;2023-12-07T03:23:45;6.20;74.60
12329;DHT22;6230;52.390;10.256;2023-12-07T03:26:11;6.20;74.60
12329;DHT22;6230;52.390;10.256;2023-12-07T03:28:36;6.10;74.60
12329;DHT22;6230;52.390;10.256;2023-12-07T03:31:03;6.20;74.60
12329;DHT22;6230;52.390;10.256;2023-12-07T03:33:28;6.10;74.60
12329;DHT22;6230;52.390;10.256;2023-12-07T03:35:54;6.10;74.70
12329;DHT22;6230;52.390;10.256;2023-12-07T03:38:19;6.10;74.70
12329;DHT22;6230;52.390;10.256;2023-12-07T03:40:45;6.10;74.70
12329;DHT22;6230;52.390;10.256;2023-12-07T03:43:13;6.10;74.70
12329;DHT22;6230;52.390;10.256;2023-12-07T03:45:38;6.10;75.40
12329;DHT22;6230;52.390;10.256;2023-12-07T03:48:04;6.10;74.70
12329;DHT22;6230;52.390;10.256;2023-12-07T03:50:30;6.10;74.70
12329;DHT22;6230;52.390;10.256;2023-12-07T03:52:55;6.10;74.70
12329;DHT22;6230;52.390;10.256;2023-12-07T03:55:21;6.10;74.70
12329;DHT22;6230;52.390;10.256;2023-12-07T03:57:46;6.20;74.70
12329;DHT22;6230;52.390;10.256;2023-12-07T04:00:12;6.20;74.60
12329;DHT22;6230;52.390;10.256;2023-12-07T04:02:38;6.20;74.60
12329;DHT22;6230;52.390;10.256;2023-12-07T04:05:04;6.20;74.60
12329;DHT22;6230;52.390;10.256;2023-12-07T04:07:30;6.20;74.60
12329;DHT22;6230;52.390;10.256;2023-12-07T04:09:55;6.20;74.60
12329;DHT22;6230;52.390;10.256;2023-12-07T04:12:23;6.20;74.60
12329;DHT22;6230;52.390;10.256;2023-12-07T04:14:49;6.20;75.40
12329;DHT22;6230;52.390;10.256;2023-12-07T04:17:15;6.20;74.50
12329;DHT22;6230;52.390;10.256;2023-12-07T04:19:40;6.20;74.50
12329;DHT22;6230;52.390;10.256;2023-12-07T04:22:06;6.20;74.60
12329;DHT22;6230;52.390;10.256;2023-12-07T04:24:32;6.20;74.60
12329;DHT22;6230;52.390;10.256;2023-12-07T04:26:57;6.20;74.60
12329;DHT22;6230;52.390;10.256;2023-12-07T04:29:23;6.20;74.60
12329;DHT22;6230;52.390;10.256;2023-12-07T04:31:48;6.20;74.70
12329;DHT22;6230;52.390;10.256;2023-12-07T04:34:14;6.10;74.60
12329;DHT22;6230;52.390;10.256;2023-12-07T04:36:40;6.10;74.60
12329;DHT22;6230;52.390;10.256;2023-12-07T04:39:05;6.10;74.60
12329;DHT22;6230;52.390;10.256;2023-12-07T04:41:31;6.10;74.70
12329;DHT22;6230;52.390;10.256;2023-12-07T04:43:56;6.10;74.70
12329;DHT22;6230;52.390;10.256;2023-12-07T04:46:22;6.10;74.80
12329;DHT22;6230;52.390;10.256;2023-12-07T04:48:48;6.10;74.80
12329;DHT22;6230;52.390;10.256;2023-12-07T04:51:13;6.10;74.80
12329;DHT22;6230;52.390;10.256;2023-12-07T04:53:39;6.10;74.90
12329;DHT22;6230;52.390;10.256;2023-12-07T04:56:05;6.00;74.90
12329;DHT22;6230;52.390;10.256;2023-12-07T04:58:30;6.00;74.90
12329;DHT22;6230;52.390;10.256;2023-12-07T05:00:56;6.00;74.90
12329;DHT22;6230;52.390;10.256;2023-12-07T05:03:22;6.00;75.00
12329;DHT22;6230;52.390;10.256;2023-12-07T05:05:47;6.00;74.90
12329;DHT22;6230;52.390;10.256;2023-12-07T05:08:15;6.00;75.00
12329;DHT22;6230;52.390;10.256;2023-12-07T05:10:41;6.10;74.90
12329;DHT22;6230;52.390;10.256;2023-12-07T05:13:06;6.10;74.90
12329;DHT22;6230;52.390;10.256;2023-12-07T05:15:32;6.10;75.00
12329;DHT22;6230;52.390;10.256;2023-12-07T05:17:57;6.10;74.90
12329;DHT22;6230;52.390;10.256;2023-12-07T05:20:23;6.00;74.90
12329;DHT22;6230;52.390;10.256;2023-12-07T05:22:49;6.00;74.90
12329;DHT22;6230;52.390;10.256;2023-12-07T05:25:15;6.00;74.90
12329;DHT22;6230;52.390;10.256;2023-12-07T05:27:41;6.00;74.90
12329;DHT22;6230;52.390;10.256;2023-12-07T05:30:07;6.00;74.90
12329;DHT22;6230;52.390;10.256;2023-12-07T05:32:32;6.00;74.90
12329;DHT22;6230;52.390;10.256;2023-12-07T05:34:58;6.00;74.90
12329;DHT22;6230;52.390;10.256;2023-12-07T05:37:24;6.00;74.90
12329;DHT22;6230;52.390;10.256;2023-12-07T05:39:49;6.00;75.00
12329;DHT22;6230;52.390;10.256;2023-12-07T05:42:15;6.00;74.90
12329;DHT22;6230;52.390;10.256;2023-12-07T05:44:41;6.00;74.90
12329;DHT22;6230;52.390;10.256;2023-12-07T05:47:06;6.00;75.70
12329;DHT22;6230;52.390;10.256;2023-12-07T05:49:33;6.00;75.00
12329;DHT22;6230;52.390;10.256;2023-12-07T05:51:59;6.00;75.00
12329;DHT22;6230;52.390;10.256;2023-12-07T05:54:24;6.00;75.00
12329;DHT22;6230;52.390;10.256;2023-12-07T05:56:50;6.00;75.00
12329;DHT22;6230;52.390;10.256;2023-12-07T05:59:15;6.00;74.90
12329;DHT22;6230;52.390;10.256;2023-12-07T06:01:41;6.00;74.90
12329;DHT22;6230;52.390;10.256;2023-12-07T06:04:09;6.00;75.60
12329;DHT22;6230;52.390;10.256;2023-12-07T06:06:35;6.00;75.00
12329;DHT22;6230;52.390;10.256;2023-12-07T06:09:00;6.00;75.00
12329;DHT22;6230;52.390;10.256;2023-12-07T06:11:26;6.00;75.00
12329;DHT22;6230;52.390;10.256;2023-12-07T06:13:51;6.00;75.00
12329;DHT22;6230;52.390;10.256;2023-12-07T06:16:17;6.00;74.90
12329;DHT22;6230;52.390;10.256;2023-12-07T06:18:44;6.00;74.90
12329;DHT22;6230;52.390;10.256;2023-12-07T06:21:10;6.00;74.80
12329;DHT22;6230;52.390;10.256;2023-12-07T06:23:35;6.00;74.80
12329;DHT22;6230;52.390;10.256;2023-12-07T06:26:02;6.00;74.80
12329;DHT22;6230;52.390;10.256;2023-12-07T06:28:28;6.10;75.50
12329;DHT22;6230;52.390;10.256;2023-12-07T06:30:53;6.10;74.80
12329;DHT22;6230;52.390;10.256;2023-12-07T06:33:19;6.10;74.80
12329;DHT22;6230;52.390;10.256;2023-12-07T06:35:45;6.10;74.60
12329;DHT22;6230;52.390;10.256;2023-12-07T06:38:12;6.10;74.70
12329;DHT22;6230;52.390;10.256;2023-12-07T06:40:37;6.00;74.70
12329;DHT22;6230;52.390;10.256;2023-12-07T06:43:03;6.00;74.80
12329;DHT22;6230;52.390;10.256;2023-12-07T06:45:28;6.10;74.80
12329;DHT22;6230;52.390;10.256;2023-12-07T06:47:54;6.10;74.90
12329;DHT22;6230;52.390;10.256;2023-12-07T06:50:19;6.00;74.80
12329;DHT22;6230;52.390;10.256;2023-12-07T06:52:45;6.00;74.80
12329;DHT22;6230;52.390;10.256;2023-12-07T06:55:10;6.00;74.80
12329;DHT22;6230;52.390;10.256;2023-12-07T06:57:36;6.00;74.80
12329;DHT22;6230;52.390;10.256;2023-12-07T07:00:02;6.00;74.80
12329;DHT22;6230;52.390;10.256;2023-12-07T07:02:31;6.00;74.80
12329;DHT22;6230;52.390;10.256;2023-12-07T07:04:56;6.00;74.70
12329;DHT22;6230;52.390;10.256;2023-12-07T07:07:22;6.00;74.70
12329;DHT22;6230;52.390;10.256;2023-12-07T07:09:47;6.00;74.80
12329;DHT22;6230;52.390;10.256;2023-12-07T07:12:13;6.00;74.90
12329;DHT22;6230;52.390;10.256;2023-12-07T07:14:39;6.00;74.90
12329;DHT22;6230;52.390;10.256;2023-12-07T07:17:05;6.00;74.90
12329;DHT22;6230;52.390;10.256;2023-12-07T07:19:30;6.00;74.90
12329;DHT22;6230;52.390;10.256;2023-12-07T07:21:56;6.00;74.90
12329;DHT22;6230;52.390;10.256;2023-12-07T07:24:22;6.00;75.00
12329;DHT22;6230;52.390;10.256;2023-12-07T07:26:47;6.00;75.00
12329;DHT22;6230;52.390;10.256;2023-12-07T07:29:13;5.90;74.90
12329;DHT22;6230;52.390;10.256;2023-12-07T07:31:38;6.00;75.00
12329;DHT22;6230;52.390;10.256;2023-12-07T07:34:05;6.00;75.00
12329;DHT22;6230;52.390;10.256;2023-12-07T07:36:31;5.90;74.90
12329;DHT22;6230;52.390;10.256;2023-12-07T07:38:57;5.90;75.00
12329;DHT22;6230;52.390;10.256;2023-12-07T07:41:23;5.90;75.00
12329;DHT22;6230;52.390;10.256;2023-12-07T07:43:48;5.90;75.00
12329;DHT22;6230;52.390;10.256;2023-12-07T07:46:15;5.90;75.10
12329;DHT22;6230;52.390;10.256;2023-12-07T07:48:41;5.90;75.20
12329;DHT22;6230;52.390;10.256;2023-12-07T07:51:07;5.90;75.20
12329;DHT22;6230;52.390;10.256;2023-12-07T07:53:32;5.90;75.20
12329;DHT22;6230;52.390;10.256;2023-12-07T07:55:58;5.90;75.20
12329;DHT22;6230;52.390;10.256;2023-12-07T07:58:23;5.90;75.20
12329;DHT22;6230;52.390;10.256;2023-12-07T08:00:49;5.90;75.30
12329;DHT22;6230;52.390;10.256;2023-12-07T08:03:15;5.90;75.30
12329;DHT22;6230;52.390;10.256;2023-12-07T08:05:40;5.90;75.30
12329;DHT22;6230;52.390;10.256;2023-12-07T08:08:06;5.90;75.40
12329;DHT22;6230;52.390;10.256;2023-12-07T08:10:32;5.90;75.30
12329;DHT22;6230;52.390;10.256;2023-12-07T08:12:58;5.90;75.30
12329;DHT22;6230;52.390;10.256;2023-12-07T08:15:23;5.90;75.20
12329;DHT22;6230;52.390;10.256;2023-12-07T08:17:49;6.00;75.20
12329;DHT22;6230;52.390;10.256;2023-12-07T08:20:16;6.00;75.30
12329;DHT22;6230;52.390;10.256;2023-12-07T08:22:41;6.00;75.20
12329;DHT22;6230;52.390;10.256;2023-12-07T08:25:07;6.00;75.30
12329;DHT22;6230;52.390;10.256;2023-12-07T08:27:36;6.00;75.30
12329;DHT22;6230;52.390;10.256;2023-12-07T08:30:01;6.00;75.30
12329;DHT22;6230;52.390;10.256;2023-12-07T08:32:27;6.00;75.20
12329;DHT22;6230;52.390;10.256;2023-12-07T08:34:53;6.00;75.30
12329;DHT22;6230;52.390;10.256;2023-12-07T08:37:19;6.00;75.30
12329;DHT22;6230;52.390;10.256;2023-12-07T08:39:45;6.00;75.30
12329;DHT22;6230;52.390;10.256;2023-12-07T08:42:11;6.00;75.40
12329;DHT22;6230;52.390;10.256;2023-12-07T08:44:37;6.10;75.50
12329;DHT22;6230;52.390;10.256;2023-12-07T08:47:02;6.00;75.40
12329;DHT22;6230;52.390;10.256;2023-12-07T08:49:28;6.10;75.50
12329;DHT22;6230;52.390;10.256;2023-12-07T08:51:54;6.10;75.50
12329;DHT22;6230;52.390;10.256;2023-12-07T08:54:21;6.10;75.50
12329;DHT22;6230;52.390;10.256;2023-12-07T08:56:46;6.10;75.60
12329;DHT22;6230;52.390;10.256;2023-12-07T08:59:12;6.10;75.50
12329;DHT22;6230;52.390;10.256;2023-12-07T09:01:38;6.10;75.50
12329;DHT22;6230;52.390;10.256;2023-12-07T09:04:03;6.10;75.50
12329;DHT22;6230;52.390;10.256;2023-12-07T09:06:29;6.20;75.50
12329;DHT22;6230;52.390;10.256;2023-12-07T09:08:55;6.20;75.50
12329;DHT22;6230;52.390;10.256;2023-12-07T09:11:21;6.20;75.50
12329;DHT22;6230;52.390;10.256;2023-12-07T09:13:46;6.20;75.50
12329;DHT22;6230;52.390;10.256;2023-12-07T09:16:12;6.30;75.50
12329;DHT22;6230;52.390;10.256;2023-12-07T09:18:38;6.30;75.50
12329;DHT22;6230;52.390;10.256;2023-12-07T09:21:04;6.30;75.40
12329;DHT22;6230;52.390;10.256;2023-12-07T09:23:29;6.30;75.40
12329;DHT22;6230;52.390;10.256;2023-12-07T09:25:55;6.40;75.40
12329;DHT22;6230;52.390;10.256;2023-12-07T09:28:20;6.40;75.30
12329;DHT22;6230;52.390;10.256;2023-12-07T09:30:46;6.40;75.40
12329;DHT22;6230;52.390;10.256;2023-12-07T09:33:12;6.40;75.40
12329;DHT22;6230;52.390;10.256;2023-12-07T09:35:39;6.40;75.30
12329;DHT22;6230;52.390;10.256;2023-12-07T09:38:04;6.40;75.30
12329;DHT22;6230;52.390;10.256;2023-12-07T09:40:30;6.40;75.30
12329;DHT22;6230;52.390;10.256;2023-12-07T09:42:56;6.40;75.30
12329;DHT22;6230;52.390;10.256;2023-12-07T09:45:21;6.50;75.40
12329;DHT22;6230;52.390;10.256;2023-12-07T09:47:51;6.50;75.40
12329;DHT22;6230;52.390;10.256;2023-12-07T09:50:18;6.50;75.40
12329;DHT22;6230;52.390;10.256;2023-12-07T09:52:52;6.50;75.40
12329;DHT22;6230;52.390;10.256;2023-12-07T09:55:21;6.50;75.40
12329;DHT22;6230;52.390;10.256;2023-12-07T09:57:48;6.60;75.40
12329;DHT22;6230;52.390;10.256;2023-12-07T10:00:14;6.60;75.40
12329;DHT22;6230;52.390;10.256;2023-12-07T10:02:41;6.60;75.40
12329;DHT22;6230;52.390;10.256;2023-12-07T10:05:10;6.50;75.50
12329;DHT22;6230;52.390;10.256;2023-12-07T10:07:40;6.60;75.40
12329;DHT22;6230;52.390;10.256;2023-12-07T10:10:06;6.60;75.30
12329;DHT22;6230;52.390;10.256;2023-12-07T10:12:33;6.70;75.30
12329;DHT22;6230;52.390;10.256;2023-12-07T10:15:15;6.80;75.30
12329;DHT22;6230;52.390;10.256;2023-12-07T10:17:49;6.70;75.20
12329;DHT22;6230;52.390;10.256;2023-12-07T10:20:19;6.70;75.90
12329;DHT22;6230;52.390;10.256;2023-12-07T10:23:02;6.80;75.20
12329;DHT22;6230;52.390;10.256;2023-12-07T10:25:34;6.80;75.20
12329;DHT22;6230;52.390;10.256;2023-12-07T10:28:00;6.80;75.30
12329;DHT22;6230;52.390;10.256;2023-12-07T10:30:27;6.80;75.30
12329;DHT22;6230;52.390;10.256;2023-12-07T10:32:52;6.80;75.30
12329;DHT22;6230;52.390;10.256;2023-12-07T10:35:18;6.80;75.30
12329;DHT22;6230;52.390;10.256;2023-12-07T10:37:45;6.80;75.40
12329;DHT22;6230;52.390;10.256;2023-12-07T10:40:12;6.80;75.30
12329;DHT22;6230;52.390;10.256;2023-12-07T10:42:38;6.90;75.30
12329;DHT22;6230;52.390;10.256;2023-12-07T10:45:06;6.90;75.30
12329;DHT22;6230;52.390;10.256;2023-12-07T10:47:37;6.90;75.40
12329;DHT22;6230;52.390;10.256;2023-12-07T10:50:06;6.90;75.20
12329;DHT22;6230;52.390;10.256;2023-12-07T10:52:39;6.90;75.30
12329;DHT22;6230;52.390;10.256;2023-12-07T10:55:07;6.90;75.20
12329;DHT22;6230;52.390;10.256;2023-12-07T10:57:36;6.90;75.30
12329;DHT22;6230;52.390;10.256;2023-12-07T11:00:03;6.90;75.30
12329;DHT22;6230;52.390;10.256;2023-12-07T11:02:29;6.90;75.30
12329;DHT22;6230;52.390;10.256;2023-12-07T11:04:59;6.90;75.40
12329;DHT22;6230;52.390;10.256;2023-12-07T11:07:33;6.90;75.40
12329;DHT22;6230;52.390;10.256;2023-12-07T11:13:23;7.00;75.50
12329;DHT22;6230;52.390;10.256;2023-12-07T11:15:50;7.00;75.40
12329;DHT22;6230;52.390;10.256;2023-12-07T11:18:16;7.00;75.40
12329;DHT22;6230;52.390;10.256;2023-12-07T11:20:44;7.00;75.40
12329;DHT22;6230;52.390;10.256;2023-12-07T11:23:11;7.00;75.40
12329;DHT22;6230;52.390;10.256;2023-12-07T11:25:37;7.00;75.50
12329;DHT22;6230;52.390;10.256;2023-12-07T11:28:04;7.00;75.40
12329;DHT22;6230;52.390;10.256;2023-12-07T11:30:32;7.00;75.40
12329;DHT22;6230;52.390;10.256;2023-12-07T11:32:59;7.10;75.60
12329;DHT22;6230;52.390;10.256;2023-12-07T11:35:24;7.10;75.40
12329;DHT22;6230;52.390;10.256;2023-12-07T11:38:07;7.00;75.30
12329;DHT22;6230;52.390;10.256;2023-12-07T11:40:42;7.00;75.50
12329;DHT22;6230;52.390;10.256;2023-12-07T11:43:17;7.00;75.40
12329;DHT22;6230;52.390;10.256;2023-12-07T11:45:49;7.00;75.50
12329;DHT22;6230;52.390;10.256;2023-12-07T11:48:15;7.00;75.40
12329;DHT22;6230;52.390;10.256;2023-12-07T11:53:33;7.00;75.50
12329;DHT22;6230;52.390;10.256;2023-12-07T11:56:12;7.00;75.40
12329;DHT22;6230;52.390;10.256;2023-12-07T11:58:39;7.00;75.40
12329;DHT22;6230;52.390;10.256;2023-12-07T12:01:05;7.00;75.40
12329;DHT22;6230;52.390;10.256;2023-12-07T12:03:31;7.10;75.40
12329;DHT22;6230;52.390;10.256;2023-12-07T12:06:04;7.10;75.90
12329;DHT22;6230;52.390;10.256;2023-12-07T12:08:30;7.10;75.40
12329;DHT22;6230;52.390;10.256;2023-12-07T12:10:56;7.10;75.30
12329;DHT22;6230;52.390;10.256;2023-12-07T12:13:36;7.10;75.40
12329;DHT22;6230;52.390;10.256;2023-12-07T12:16:02;7.10;75.40
12329;DHT22;6230;52.390;10.256;2023-12-07T12:18:28;7.10;75.30
12329;DHT22;6230;52.390;10.256;2023-12-07T12:20:54;7.10;75.30
12329;DHT22;6230;52.390;10.256;2023-12-07T12:23:20;7.20;75.30
12329;DHT22;6230;52.390;10.256;2023-12-07T12:25:46;7.20;75.30
12329;DHT22;6230;52.390;10.256;2023-12-07T12:28:16;7.20;75.20
12329;DHT22;6230;52.390;10.256;2023-12-07T12:30:43;7.20;75.40
12329;DHT22;6230;52.390;10.256;2023-12-07T12:33:09;7.30;75.40
12329;DHT22;6230;52.390;10.256;2023-12-07T12:35:34;7.20;75.20
12329;DHT22;6230;52.390;10.256;2023-12-07T12:38:00;7.20;75.30
12329;DHT22;6230;52.390;10.256;2023-12-07T12:40:27;7.20;75.20
12329;DHT22;6230;52.390;10.256;2023-12-07T12:42:55;7.20;75.20
12329;DHT22;6230;52.390;10.256;2023-12-07T12:45:20;7.20;75.20
12329;DHT22;6230;52.390;10.256;2023-12-07T12:47:47;7.20;75.30
12329;DHT22;6230;52.390;10.256;2023-12-07T12:50:36;7.20;75.30
12329;DHT22;6230;52.390;10.256;2023-12-07T12:53:06;7.20;76.10
12329;DHT22;6230;52.390;10.256;2023-12-07T12:55:36;7.20;75.30
12329;DHT22;6230;52.390;10.256;2023-12-07T12:58:02;7.20;75.30
12329;DHT22;6230;52.390;10.256;2023-12-07T13:00:29;7.20;75.30
12329;DHT22;6230;52.390;10.256;2023-12-07T13:02:55;7.20;75.30
12329;DHT22;6230;52.390;10.256;2023-12-07T13:05:21;7.20;75.30
12329;DHT22;6230;52.390;10.256;2023-12-07T13:07:46;7.20;75.40
12329;DHT22;6230;52.390;10.256;2023-12-07T13:10:15;7.20;75.30
12329;DHT22;6230;52.390;10.256;2023-12-07T13:12:40;7.20;75.30
12329;DHT22;6230;52.390;10.256;2023-12-07T13:15:06;7.20;75.30
12329;DHT22;6230;52.390;10.256;2023-12-07T13:17:32;7.20;75.30
12329;DHT22;6230;52.390;10.256;2023-12-07T13:19:57;7.20;75.30
12329;DHT22;6230;52.390;10.256;2023-12-07T13:22:23;7.20;75.30
12329;DHT22;6230;52.390;10.256;2023-12-07T13:24:48;7.20;75.30
12329;DHT22;6230;52.390;10.256;2023-12-07T13:27:15;7.20;75.30
12329;DHT22;6230;52.390;10.256;2023-12-07T13:29:41;7.20;75.50
12329;DHT22;6230;52.390;10.256;2023-12-07T13:32:07;7.20;75.20
12329;DHT22;6230;52.390;10.256;2023-12-07T13:34:33;7.20;75.20
12329;DHT22;6230;52.390;10.256;2023-12-07T13:36:58;7.20;75.10
12329;DHT22;6230;52.390;10.256;2023-12-07T13:39:24;7.20;75.10
12329;DHT22;6230;52.390;10.256;2023-12-07T13:41:52;7.20;75.10
12329;DHT22;6230;52.390;10.256;2023-12-07T13:44:17;7.30;75.10
12329;DHT22;6230;52.390;10.256;2023-12-07T13:46:44;7.30;75.20
12329;DHT22;6230;52.390;10.256;2023-12-07T13:49:10;7.20;75.00
12329;DHT22;6230;52.390;10.256;2023-12-07T13:51:40;7.20;75.00
12329;DHT22;6230;52.390;10.256;2023-12-07T13:54:06;7.20;75.00
12329;DHT22;6230;52.390;10.256;2023-12-07T13:56:33;7.20;75.00
12329;DHT22;6230;52.390;10.256;2023-12-07T13:58:59;7.20;75.00
12329;DHT22;6230;52.390;10.256;2023-12-07T14:01:24;7.20;75.00
12329;DHT22;6230;52.390;10.256;2023-12-07T14:03:51;7.20;74.90
12329;DHT22;6230;52.390;10.256;2023-12-07T14:06:27;7.30;74.80
12329;DHT22;6230;52.390;10.256;2023-12-07T14:08:52;7.30;74.90
12329;DHT22;6230;52.390;10.256;2023-12-07T14:11:18;7.40;74.80
12329;DHT22;6230;52.390;10.256;2023-12-07T14:13:45;7.40;74.70
12329;DHT22;6230;52.390;10.256;2023-12-07T14:16:12;7.40;74.60
12329;DHT22;6230;52.390;10.256;2023-12-07T14:18:38;7.40;74.60
12329;DHT22;6230;52.390;10.256;2023-12-07T14:21:03;7.40;74.50
12329;DHT22;6230;52.390;10.256;2023-12-07T14:23:29;7.40;74.40
12329;DHT22;6230;52.390;10.256;2023-12-07T14:25:55;7.50;74.50
12329;DHT22;6230;52.390;10.256;2023-12-07T14:28:24;7.40;74.40
12329;DHT22;6230;52.390;10.256;2023-12-07T14:30:49;7.50;74.40
12329;DHT22;6230;52.390;10.256;2023-12-07T14:33:15;7.40;74.30
12329;DHT22;6230;52.390;10.256;2023-12-07T14:35:41;7.40;74.40
12329;DHT22;6230;52.390;10.256;2023-12-07T14:38:06;7.40;74.40
12329;DHT22;6230;52.390;10.256;2023-12-07T14:40:32;7.40;74.30
12329;DHT22;6230;52.390;10.256;2023-12-07T14:42:58;7.40;74.30
12329;DHT22;6230;52.390;10.256;2023-12-07T14:45:23;7.40;74.30
12329;DHT22;6230;52.390;10.256;2023-12-07T14:47:49;7.30;74.30
12329;DHT22;6230;52.390;10.256;2023-12-07T14:50:15;7.30;74.50
12329;DHT22;6230;52.390;10.256;2023-12-07T14:52:40;7.30;75.40
12329;DHT22;6230;52.390;10.256;2023-12-07T14:55:06;7.30;74.60
12329;DHT22;6230;52.390;10.256;2023-12-07T14:57:32;7.20;74.60
12329;DHT22;6230;52.390;10.256;2023-12-07T14:59:57;7.20;74.70
12329;DHT22;6230;52.390;10.256;2023-12-07T15:02:24;7.20;74.70
12329;DHT22;6230;52.390;10.256;2023-12-07T15:04:50;7.20;74.70
12329;DHT22;6230;52.390;10.256;2023-12-07T15:07:15;7.20;74.70
12329;DHT22;6230;52.390;10.256;2023-12-07T15:09:42;7.20;74.60
12329;DHT22;6230;52.390;10.256;2023-12-07T15:12:07;7.20;74.60
12329;DHT22;6230;52.390;10.256;2023-12-07T15:14:33;7.20;74.60
12329;DHT22;6230;52.390;10.256;2023-12-07T15:16:59;7.20;74.50
12329;DHT22;6230;52.390;10.256;2023-12-07T15:19:24;7.20;74.50
12329;DHT22;6230;52.390;10.256;2023-12-07T15:21:50;7.10;74.50
12329;DHT22;6230;52.390;10.256;2023-12-07T15:24:16;7.10;74.60
12329;DHT22;6230;52.390;10.256;2023-12-07T15:26:42;7.10;74.70
12329;DHT22;6230;52.390;10.256;2023-12-07T15:29:09;7.10;74.80
12329;DHT22;6230;52.390;10.256;2023-12-07T15:31:34;7.10;74.70
12329;DHT22;6230;52.390;10.256;2023-12-07T15:34:00;7.00;74.70
12329;DHT22;6230;52.390;10.256;2023-12-07T15:36:25;7.00;74.70
12329;DHT22;6230;52.390;10.256;2023-12-07T15:38:51;7.00;74.80
12329;DHT22;6230;52.390;10.256;2023-12-07T15:41:16;7.00;74.80
12329;DHT22;6230;52.390;10.256;2023-12-07T15:43:42;6.90;74.90
12329;DHT22;6230;52.390;10.256;2023-12-07T15:46:07;6.90;74.90
12329;DHT22;6230;52.390;10.256;2023-12-07T15:48:33;6.90;75.00